Time;durP1;ratioP1;P1;durP2;ratioP2;P2;SDS_P1;SDS_P2;PMS_P1;PMS_P2;Temp;Humidity;BMP_temperature;BMP_pressure;BME280_temperature;BME280_humidity;BME280_pressure;Samples;Min_cycle;Max_cycle;Signal;HPM_P1;HPM_P2
2022/03/15 00:03:09;;;;;;;66.97;61.60;;;;;;;7.29;100.00;102594.05;2013409;71;32805;-70
2022/03/15 00:08:53;;;;;;;66.73;61.33;;;;;;;7.05;100.00;102585.16;2009696;71;32816;-73
2022/03/15 00:14:38;;;;;;;68.37;62.77;;;;;;;7.01;100.00;102585.28;2016867;71;32808;-73
2022/03/15 00:20:23;;;;;;;66.37;60.67;;;;;;;6.82;100.00;102580.99;2008350;71;33249;-74
2022/03/15 00:26:09;;;;;;;64.63;59.13;;;;;;;6.83;100.00;102573.55;2004010;71;33379;-73
2022/03/15 00:31:53;;;;;;;70.20;64.50;;;;;;;6.65;100.00;102582.53;1991567;71;32863;-69
2022/03/15 00:37:37;;;;;;;68.50;62.70;;;;;;;6.74;100.00;102583.14;2016764;71;32816;-73
2022/03/15 00:43:23;;;;;;;67.20;61.50;;;;;;;6.66;100.00;102583.39;1995073;71;33322;-72
2022/03/15 00:49:08;;;;;;;71.63;65.63;;;;;;;6.64;100.00;102570.31;1998843;71;32868;-72
2022/03/15 00:54:52;;;;;;;69.70;64.10;;;;;;;6.57;100.00;102570.34;2006086;71;32787;-73
2022/03/15 01:00:36;;;;;;;69.87;64.17;;;;;;;6.26;100.00;102575.19;1995157;70;32821;-73
2022/03/15 01:06:20;;;;;;;71.40;65.40;;;;;;;6.15;100.00;102590.17;2016749;71;32983;-73
2022/03/15 01:12:06;;;;;;;67.37;61.60;;;;;;;6.30;100.00;102576.45;1991554;71;32880;-74
2022/03/15 01:17:50;;;;;;;67.23;61.47;;;;;;;6.07;100.00;102561.43;1998507;71;32828;-73
2022/03/15 01:23:35;;;;;;;68.40;62.70;;;;;;;6.00;100.00;102551.77;2002830;71;32794;-70
2022/03/15 01:29:20;;;;;;;66.40;60.87;;;;;;;5.88;100.00;102547.95;2011450;71;32874;-70
2022/03/15 01:35:06;;;;;;;69.23;63.73;;;;;;;5.74;100.00;102546.22;2010091;71;33297;-73
2022/03/15 01:40:50;;;;;;;63.53;58.33;;;;;;;5.74;100.00;102531.91;2011919;71;32847;-70
2022/03/15 01:46:34;;;;;;;65.70;60.37;;;;;;;5.71;100.00;102528.73;2004427;71;32814;-70
2022/03/15 01:52:19;;;;;;;64.90;59.50;;;;;;;5.67;100.00;102517.28;1995633;71;33444;-73
2022/03/15 01:58:03;;;;;;;65.23;59.43;;;;;;;5.54;100.00;102511.77;2013689;71;32767;-70
2022/03/15 02:03:47;;;;;;;63.83;58.53;;;;;;;5.48;100.00;102504.33;1991980;71;32942;-73
2022/03/15 02:09:35;;;;;;;71.37;65.57;;;;;;;5.61;100.00;102494.69;1996940;71;32893;-74
2022/03/15 02:15:21;;;;;;;75.60;70.00;;;;;;;5.55;100.00;102498.31;1991477;71;32759;-70
2022/03/15 02:21:05;;;;;;;72.63;66.63;;;;;;;5.73;100.00;102473.71;1995256;71;32875;-69
2022/03/15 02:26:50;;;;;;;68.17;62.37;;;;;;;5.76;100.00;102473.80;2012972;71;32812;-70
2022/03/15 02:32:34;;;;;;;72.77;66.67;;;;;;;5.71;100.00;102468.92;2015064;71;32834;-73
2022/03/15 02:38:21;;;;;;;72.50;66.70;;;;;;;6.08;100.00;102461.03;1997300;71;32778;-70
2022/03/15 02:44:07;;;;;;;67.20;61.27;;;;;;;6.09;100.00;102448.41;2011797;71;33404;-73
2022/03/15 02:49:52;;;;;;;67.17;61.50;;;;;;;6.25;100.00;102441.55;2008011;71;33350;-72
2022/03/15 02:55:37;;;;;;;69.30;63.47;;;;;;;6.06;100.00;102428.69;2006430;70;32768;-73
2022/03/15 03:01:21;;;;;;;76.37;70.23;;;;;;;6.16;100.00;102429.91;2005701;71;32844;-73
2022/03/15 03:07:07;;;;;;;74.83;68.87;;;;;;;6.16;100.00;102423.58;2018668;71;33333;-72
2022/03/15 03:12:51;;;;;;;70.00;64.70;;;;;;;6.09;100.00;102411.17;2005887;71;32841;-73
2022/03/15 03:18:35;;;;;;;69.17;63.80;;;;;;;6.04;100.00;102404.07;1994963;71;32855;-70
2022/03/15 03:24:24;;;;;;;71.17;65.53;;;;;;;6.03;100.00;102391.89;2017038;71;32952;-74
2022/03/15 03:30:09;;;;;;;71.67;66.23;;;;;;;6.01;100.00;102382.98;2008167;70;32908;-71
2022/03/15 03:35:53;;;;;;;68.30;62.67;;;;;;;6.21;100.00;102383.20;2015141;71;33299;-73
2022/03/15 03:41:37;;;;;;;69.60;63.87;;;;;;;6.19;100.00;102381.22;2005691;71;32835;-70
2022/03/15 03:47:21;;;;;;;72.23;66.67;;;;;;;6.22;100.00;102390.95;1999153;71;32814;-73
2022/03/15 03:53:06;;;;;;;73.83;67.93;;;;;;;6.25;100.00;102373.95;2002945;71;32835;-73
2022/03/15 03:58:51;;;;;;;71.97;66.03;;;;;;;6.35;100.00;102377.95;2004166;70;32924;-73
2022/03/15 04:04:35;;;;;;;69.07;63.17;;;;;;;6.44;100.00;102367.50;2003901;71;32975;-69
2022/03/15 04:10:22;;;;;;;68.47;62.83;;;;;;;6.35;100.00;102363.30;1991486;70;32755;-69
2022/03/15 04:16:06;;;;;;;69.27;63.63;;;;;;;6.25;100.00;102358.77;2009550;71;33327;-69
2022/03/15 04:21:50;;;;;;;66.63;61.03;;;;;;;6.25;100.00;102358.25;2006128;71;32867;-70
2022/03/15 04:27:35;;;;;;;70.67;64.83;;;;;;;6.08;100.00;102346.55;2016846;71;33468;-72
2022/03/15 04:33:20;;;;;;;68.70;62.73;;;;;;;6.01;100.00;102352.63;1991438;71;32827;-70
2022/03/15 04:39:04;;;;;;;69.33;63.70;;;;;;;6.00;100.00;102342.66;1991708;71;33249;-69
2022/03/15 04:44:49;;;;;;;75.17;68.77;;;;;;;6.27;100.00;102332.67;2002500;71;32763;-73
2022/03/15 04:50:33;;;;;;;69.70;64.20;;;;;;;6.20;100.00;102326.36;1994965;71;32822;-71
2022/03/15 04:56:19;;;;;;;69.23;63.53;;;;;;;5.90;100.00;102329.36;2002781;71;32837;-73
2022/03/15 05:02:03;;;;;;;72.47;66.57;;;;;;;5.74;100.00;102329.78;1950932;70;39607;-70
2022/03/15 05:07:46;;;;;;;70.73;64.97;;;;;;;5.59;100.00;102327.83;1995449;71;33232;-72
2022/03/15 05:13:31;;;;;;;71.07;65.33;;;;;;;5.63;100.00;102319.44;2011657;71;32831;-70
2022/03/15 05:19:16;;;;;;;70.30;64.60;;;;;;;5.83;100.00;102313.31;2008357;71;32873;-70
2022/03/15 05:25:00;;;;;;;67.53;61.83;;;;;;;5.91;100.00;102318.09;2014928;71;32826;-70
2022/03/15 05:30:44;;;;;;;68.63;62.57;;;;;;;6.03;100.00;102311.37;2004565;71;32758;-71
2022/03/15 05:36:28;;;;;;;72.97;66.77;;;;;;;5.87;100.00;102314.08;2005946;71;33302;-73
2022/03/15 05:42:13;;;;;;;74.17;67.87;;;;;;;6.17;100.00;102314.89;2016972;71;33391;-74
2022/03/15 05:47:57;;;;;;;73.20;67.17;;;;;;;5.89;100.00;102316.62;2005788;71;33369;-73
2022/03/15 05:53:41;;;;;;;73.60;67.30;;;;;;;5.99;100.00;102318.36;2000353;71;32899;-72
2022/03/15 05:59:25;;;;;;;72.03;65.67;;;;;;;6.03;100.00;102320.18;1997042;71;32771;-72
2022/03/15 06:05:12;;;;;;;75.97;69.83;;;;;;;5.97;100.00;102322.42;1968262;72;32921;-67
2022/03/15 06:11:03;;;;;;;75.10;68.80;;;;;;;6.13;100.00;102331.56;2015171;71;32846;-68
2022/03/15 06:16:47;;;;;;;71.63;65.73;;;;;;;6.01;100.00;102338.31;1988563;71;32787;-73
2022/03/15 06:22:32;;;;;;;65.00;59.33;;;;;;;6.14;100.00;102337.41;2011392;71;33319;-73
2022/03/15 06:28:16;;;;;;;68.07;61.83;;;;;;;5.97;100.00;102338.44;2000426;71;32829;-74
2022/03/15 06:34:00;;;;;;;68.63;62.93;;;;;;;6.07;100.00;102331.09;2016676;71;32888;-70
2022/03/15 06:39:45;;;;;;;69.07;62.97;;;;;;;6.27;100.00;102340.95;2016800;71;32891;-73
2022/03/15 06:45:29;;;;;;;72.13;65.63;;;;;;;6.31;100.00;102349.09;2015342;71;33367;-68
2022/03/15 06:51:13;;;;;;;71.30;65.13;;;;;;;6.47;100.00;102344.11;2005868;71;32803;-72
2022/03/15 06:56:58;;;;;;;72.77;66.20;;;;;;;6.51;100.00;102339.84;2016671;71;32906;-69
2022/03/15 07:02:43;;;;;;;76.50;70.37;;;;;;;6.33;100.00;102338.67;1998446;71;32832;-70
2022/03/15 07:08:28;;;;;;;74.97;68.87;;;;;;;6.35;100.00;102332.41;2009627;71;32944;-69
2022/03/15 07:14:12;;;;;;;79.87;73.17;;;;;;;6.44;100.00;102323.87;2014909;71;33384;-74
2022/03/15 07:19:57;;;;;;;75.40;69.07;;;;;;;6.60;100.00;102321.41;2002751;71;32846;-73
2022/03/15 07:25:41;;;;;;;79.87;73.10;;;;;;;6.70;100.00;102317.64;1998970;71;32943;-70
2022/03/15 07:31:25;;;;;;;79.73;73.13;;;;;;;6.76;100.00;102319.48;2011677;71;32760;-69
2022/03/15 07:37:09;;;;;;;80.53;73.77;;;;;;;6.84;100.00;102319.77;2009357;70;32816;-73
2022/03/15 07:42:54;;;;;;;78.27;71.47;;;;;;;6.79;100.00;102313.53;2009582;71;32882;-69
2022/03/15 07:48:38;;;;;;;79.80;73.17;;;;;;;6.96;100.00;102313.81;2017298;71;33288;-73
2022/03/15 07:54:22;;;;;;;82.50;75.67;;;;;;;7.51;100.00;102302.32;2016778;71;32834;-68
2022/03/15 08:00:10;;;;;;;83.23;76.63;;;;;;;7.93;100.00;102294.16;2009468;71;32974;-74
2022/03/15 08:05:54;;;;;;;73.17;66.87;;;;;;;8.39;100.00;102277.77;2009131;71;32891;-69
2022/03/15 08:11:40;;;;;;;81.43;74.40;;;;;;;8.76;100.00;102274.87;2000205;71;32774;-68
2022/03/15 08:17:25;;;;;;;81.30;74.97;;;;;;;9.03;100.00;102281.63;1997246;71;32824;-75
2022/03/15 08:23:10;;;;;;;70.23;63.77;;;;;;;9.41;100.00;102280.59;2005786;71;33314;-75
2022/03/15 08:28:55;;;;;;;75.27;68.70;;;;;;;9.60;100.00;102283.53;1997046;71;32833;-73
2022/03/15 08:34:39;;;;;;;70.63;64.13;;;;;;;9.81;100.00;102284.81;2013098;71;32901;-72
2022/03/15 08:40:24;;;;;;;69.83;63.53;;;;;;;9.80;100.00;102280.88;2007809;71;32990;-76
2022/03/15 08:46:09;;;;;;;72.87;66.43;;;;;;;9.95;100.00;102272.89;2010052;71;32861;-74
2022/03/15 08:51:53;;;;;;;74.47;68.47;;;;;;;10.11;100.00;102249.04;2011827;71;32807;-75
2022/03/15 08:57:37;;;;;;;78.00;71.73;;;;;;;10.43;100.00;102230.81;2018781;71;32908;-76
2022/03/15 09:03:25;;;;;;;68.83;63.10;;;;;;;10.68;100.00;102199.29;2014727;70;32852;-75
2022/03/15 09:09:09;;;;;;;71.47;65.50;;;;;;;11.19;100.00;102188.39;2018688;70;33264;-72
2022/03/15 09:14:54;;;;;;;68.30;63.20;;;;;;;11.36;100.00;102164.14;2004590;71;32915;-74
2022/03/15 09:20:39;;;;;;;71.93;67.03;;;;;;;11.42;100.00;102158.91;2018432;71;32889;-75
2022/03/15 09:26:23;;;;;;;73.00;67.93;;;;;;;11.46;100.00;102142.57;2014971;71;32849;-77
2022/03/15 09:32:10;;;;;;;70.90;65.67;;;;;;;11.62;100.00;102141.64;2014933;71;32827;-78
2022/03/15 09:37:55;;;;;;;68.60;63.70;;;;;;;11.65;100.00;102144.44;1991445;71;32823;-78
2022/03/15 09:43:45;;;;;;;69.67;65.03;;;;;;;11.64;100.00;102151.95;2013505;71;32763;-73
2022/03/15 09:49:29;;;;;;;68.47;63.37;;;;;;;11.84;100.00;102154.17;2003925;70;32818;-73
2022/03/15 09:55:14;;;;;;;71.23;66.13;;;;;;;11.94;100.00;102147.88;2005844;71;32882;-77
2022/03/15 10:01:00;;;;;;;68.87;64.03;;;;;;;12.03;100.00;102151.84;2007690;70;33291;-76
2022/03/15 10:06:44;;;;;;;65.87;61.50;;;;;;;12.18;100.00;102153.39;2009148;71;32868;-75
2022/03/15 10:12:29;;;;;;;69.07;64.53;;;;;;;12.25;100.00;102138.69;2009431;71;33383;-74
2022/03/15 10:18:16;;;;;;;67.37;62.80;;;;;;;12.36;100.00;102127.09;2009185;71;32823;-76
2022/03/15 10:24:00;;;;;;;63.93;59.77;;;;;;;12.74;100.00;102127.66;1998532;71;32861;-74
2022/03/15 10:29:47;;;;;;;60.77;56.87;;;;;;;12.85;100.00;102123.53;1991524;71;32881;-77
2022/03/15 10:35:35;;;;;;;59.27;55.50;;;;;;;12.97;100.00;102133.91;2018264;71;32920;-75
2022/03/15 10:41:20;;;;;;;56.90;53.30;;;;;;;13.45;100.00;102118.28;1997096;71;32858;-77
2022/03/15 10:47:12;;;;;;;57.33;53.70;;;;;;;13.58;100.00;102101.58;2006265;70;32812;-74
2022/03/15 10:53:09;;;;;;;52.80;49.33;;;;;;;13.57;100.00;102103.52;2018530;71;33379;-73
2022/03/15 10:58:55;;;;;;;54.17;50.87;;;;;;;13.75;100.00;102095.20;2016814;71;33327;-72
2022/03/15 11:04:49;;;;;;;51.77;48.53;;;;;;;13.69;100.00;102088.75;2014535;71;32969;-77
2022/03/15 11:10:34;;;;;;;51.00;47.67;;;;;;;13.95;100.00;102095.22;2004197;71;32862;-78
2022/03/15 11:16:20;;;;;;;47.87;45.00;;;;;;;14.04;100.00;102097.75;1991418;71;32861;-76
2022/03/15 11:22:05;;;;;;;39.97;37.63;;;;;;;14.42;100.00;102092.19;1998388;71;32991;-77
2022/03/15 11:27:54;;;;;;;26.73;25.00;;;;;;;14.64;100.00;102086.84;1996952;71;32793;-76
2022/03/15 11:33:40;;;;;;;21.77;20.13;;;;;;;14.73;100.00;102084.59;2011232;71;32869;-74
2022/03/15 11:39:26;;;;;;;19.03;17.63;;;;;;;14.62;100.00;102073.16;2016767;71;32846;-76
2022/03/15 11:45:16;;;;;;;14.60;13.80;;;;;;;14.82;100.00;102068.91;2009419;71;32885;-76
2022/03/15 11:51:08;;;;;;;13.30;12.30;;;;;;;14.74;100.00;102070.89;2008281;70;32836;-77
2022/03/15 11:56:58;;;;;;;13.37;12.43;;;;;;;14.71;100.00;102051.89;2011513;71;32868;-76
2022/03/15 12:03:02;;;;;;;12.87;11.97;;;;;;;14.87;100.00;102049.32;2000083;71;32891;-76
2022/03/15 12:08:59;;;;;;;12.50;11.60;;;;;;;14.96;100.00;102039.22;2003712;71;32913;-79
2022/03/15 12:14:51;;;;;;;12.73;11.70;;;;;;;15.03;100.00;102040.30;2005425;71;32917;-79
2022/03/15 12:20:46;;;;;;;12.90;11.67;;;;;;;15.00;100.00;102041.72;2011108;71;33049;-79
2022/03/15 12:26:36;;;;;;;12.90;12.00;;;;;;;15.01;100.00;102046.75;2016490;71;32894;-76
2022/03/15 12:32:22;;;;;;;13.37;12.40;;;;;;;15.09;100.00;102034.96;2018122;71;32827;-78
2022/03/15 12:38:10;;;;;;;11.93;11.13;;;;;;;15.31;100.00;102027.02;1991401;71;32888;-76
2022/03/15 12:43:57;;;;;;;12.33;11.30;;;;;;;15.30;100.00;102030.09;2011049;71;33601;-76
2022/03/15 12:49:41;;;;;;;14.67;13.40;;;;;;;15.33;100.00;102030.91;2014796;71;33357;-75
2022/03/15 12:55:29;;;;;;;18.90;17.17;;;;;;;15.57;100.00;102020.73;2016587;71;32948;-76
2022/03/15 13:01:14;;;;;;;14.77;13.60;;;;;;;15.82;100.00;102016.34;1998599;71;32833;-79
2022/03/15 13:07:04;;;;;;;14.27;13.13;;;;;;;15.53;100.00;102016.84;2007762;71;32928;-75
2022/03/15 13:12:49;;;;;;;13.20;12.30;;;;;;;15.78;100.00;102006.85;2000639;71;32758;-75
2022/03/15 13:18:34;;;;;;;13.17;11.90;;;;;;;15.73;100.00;102001.84;2009558;71;32907;-77
2022/03/15 13:24:23;;;;;;;12.30;11.43;;;;;;;15.78;100.00;101990.61;2007006;70;33481;-77
2022/03/15 13:30:15;;;;;;;12.93;11.93;;;;;;;15.64;100.00;101976.98;2014907;71;33005;-77
2022/03/15 13:36:10;;;;;;;13.23;12.23;;;;;;;15.59;100.00;101956.00;1999977;71;32887;-79
2022/03/15 13:42:00;;;;;;;13.27;12.07;;;;;;;15.81;100.00;101956.39;2016527;71;33058;-79
2022/03/15 13:47:55;;;;;;;13.17;12.10;;;;;;;15.84;100.00;101953.83;1991508;71;32942;-78
2022/03/15 13:53:41;;;;;;;12.93;11.93;;;;;;;15.77;100.00;101957.55;2005583;71;33445;-75
2022/03/15 13:59:28;;;;;;;12.60;11.80;;;;;;;15.76;100.00;101949.42;2000689;71;32813;-78
2022/03/15 14:05:19;;;;;;;13.07;12.00;;;;;;;15.77;100.00;101948.30;1956143;72;30918;-75
2022/03/15 14:11:11;;;;;;;13.23;12.13;;;;;;;15.68;100.00;101932.69;2014567;71;32904;-78
2022/03/15 14:16:59;;;;;;;12.80;11.87;;;;;;;15.89;100.00;101934.17;2009265;71;32862;-76
2022/03/15 14:22:48;;;;;;;12.90;11.80;;;;;;;15.88;100.00;101924.09;2005540;71;33304;-77
2022/03/15 14:28:34;;;;;;;11.90;11.17;;;;;;;15.96;100.00;101918.41;2009769;71;32856;-78
2022/03/15 14:34:20;;;;;;;12.70;11.77;;;;;;;15.92;100.00;101909.76;2006136;71;33296;-76
2022/03/15 14:40:07;;;;;;;12.57;11.63;;;;;;;15.81;100.00;101907.36;2016615;71;32832;-77
2022/03/15 14:45:54;;;;;;;11.93;11.27;;;;;;;15.77;100.00;101916.08;1994610;71;33048;-78
2022/03/15 14:51:41;;;;;;;12.40;11.50;;;;;;;16.33;100.00;101904.56;1998681;71;30888;-69
2022/03/15 14:57:27;;;;;;;11.63;10.83;;;;;;;15.79;100.00;101908.20;2014948;71;31476;-70
2022/03/15 15:03:13;;;;;;;11.60;10.90;;;;;;;15.84;100.00;101909.56;1990783;71;32768;-80
2022/03/15 15:09:01;;;;;;;13.13;12.13;;;;;;;15.93;100.00;101910.59;2012966;71;33380;-69
2022/03/15 15:14:44;;;;;;;12.00;11.20;;;;;;;15.64;100.00;101900.79;2014837;70;31032;-78
2022/03/15 15:20:30;;;;;;;12.60;11.80;;;;;;;15.86;100.00;101889.94;1998775;71;33422;-70
2022/03/15 15:26:14;;;;;;;12.23;11.53;;;;;;;15.85;100.00;101884.63;2012952;71;32921;-78
2022/03/15 15:31:59;;;;;;;13.10;12.10;;;;;;;15.80;100.00;101882.70;2006438;71;33274;-71
2022/03/15 15:37:45;;;;;;;12.00;11.30;;;;;;;15.71;100.00;101880.83;2016883;71;33405;-71
2022/03/15 15:43:30;;;;;;;12.23;11.53;;;;;;;15.62;100.00;101876.98;2011777;71;30817;-71
2022/03/15 15:49:16;;;;;;;12.13;11.17;;;;;;;15.52;100.00;101870.09;2006485;71;33224;-71
2022/03/15 15:55:01;;;;;;;12.90;11.83;;;;;;;15.55;100.00;101871.73;2009535;71;32974;-71
2022/03/15 16:00:47;;;;;;;13.20;12.37;;;;;;;15.44;100.00;101877.98;2005807;71;31352;-73
2022/03/15 16:06:32;;;;;;;13.63;12.63;;;;;;;15.41;100.00;101882.74;1995591;71;33268;-75
2022/03/15 16:12:16;;;;;;;14.20;13.20;;;;;;;16.67;100.00;101880.60;2000769;71;32923;-74
2022/03/15 16:18:01;;;;;;;13.70;12.53;;;;;;;16.40;100.00;101876.98;2007815;71;31038;-74
2022/03/15 16:23:46;;;;;;;14.70;13.57;;;;;;;16.72;100.00;101876.33;2009860;71;30829;-75
2022/03/15 16:29:30;;;;;;;15.33;14.07;;;;;;;16.61;100.00;101873.38;2005630;71;32990;-73
2022/03/15 16:35:15;;;;;;;14.80;13.60;;;;;;;16.61;100.00;101863.56;1991533;71;32929;-75
2022/03/15 16:40:59;;;;;;;17.57;15.77;;;;;;;15.39;100.00;101749.78;2007308;71;32935;-73
2022/03/15 16:46:43;;;;;;;18.17;16.97;;;;;;;15.30;100.00;101891.52;2011331;71;33334;-71
2022/03/15 16:52:30;;;;;;;19.50;18.30;;;;;;;14.67;100.00;101892.77;2000520;71;32904;-77
2022/03/15 17:10:21;;;;;;;20.57;19.30;;;;;;;14.15;100.00;101925.35;2002058;71;32844;-74
2022/03/15 17:16:06;;;;;;;22.53;20.97;;;;;;;14.12;100.00;101930.09;2014830;71;33306;-69
2022/03/15 17:21:50;;;;;;;23.60;22.07;;;;;;;14.05;100.00;101935.14;2007824;71;32833;-74
2022/03/15 17:27:36;;;;;;;25.60;23.90;;;;;;;13.91;100.00;101939.63;2002788;71;32972;-76
2022/03/15 17:33:25;;;;;;;27.07;25.27;;;;;;;13.92;100.00;101948.29;1991586;71;32847;-71
2022/03/15 17:39:09;;;;;;;28.93;26.93;;;;;;;13.69;100.00;101954.72;2004573;71;33211;-75
2022/03/15 17:45:02;;;;;;;32.43;30.43;;;;;;;13.60;100.00;101959.21;1991522;71;32748;-79
2022/03/15 17:50:42;;;;;;;33.97;31.87;;;;;;;13.56;100.00;101960.85;2003878;71;32816;-78
2022/03/15 17:56:33;;;;;;;37.37;35.17;;;;;;;13.44;100.00;101958.89;2016708;71;32800;-73
2022/03/15 18:02:14;;;;;;;40.60;38.10;;;;;;;13.26;100.00;101950.23;2005983;71;32965;-79
2022/03/15 18:07:59;;;;;;;46.00;43.33;;;;;;;13.16;100.00;101951.89;2016721;71;33581;-79
2022/03/15 18:13:45;;;;;;;46.67;43.63;;;;;;;13.15;100.00;101957.17;2000768;71;33266;-70
2022/03/15 18:19:30;;;;;;;48.80;45.83;;;;;;;13.18;100.00;101960.80;1998710;71;33401;-76
2022/03/15 18:25:17;;;;;;;54.07;50.77;;;;;;;13.14;100.00;101965.26;2016863;71;32818;-74
2022/03/15 18:31:00;;;;;;;58.93;55.57;;;;;;;13.07;100.00;101967.45;2015142;71;33405;-68
2022/03/15 18:36:46;;;;;;;66.03;61.93;;;;;;;12.98;100.00;101972.44;2015176;71;32794;-78
2022/03/15 18:42:31;;;;;;;64.80;61.00;;;;;;;12.89;100.00;101967.94;2016574;71;32944;-77
2022/03/15 18:48:18;;;;;;;71.53;67.23;;;;;;;12.82;100.00;101961.80;1997106;71;33240;-68
2022/03/15 18:54:04;;;;;;;75.80;71.10;;;;;;;12.68;100.00;101965.64;2006524;71;32768;-69
2022/03/15 18:59:53;;;;;;;79.20;74.20;;;;;;;12.49;100.00;101965.00;1998418;71;32863;-74
2022/03/15 19:05:35;;;;;;;79.67;74.50;;;;;;;12.55;100.00;101969.47;1977634;72;32971;-70
2022/03/15 19:11:23;;;;;;;82.40;77.30;;;;;;;12.53;100.00;101965.58;2011608;70;32824;-77
2022/03/15 19:17:08;;;;;;;78.30;73.17;;;;;;;12.41;100.00;101970.50;2005708;71;32927;-69
2022/03/15 19:22:56;;;;;;;79.10;73.90;;;;;;;12.40;100.00;101978.61;2018661;71;33308;-76
2022/03/15 19:28:44;;;;;;;86.17;80.70;;;;;;;12.32;100.00;101977.73;2010093;71;32755;-71
2022/03/15 19:34:28;;;;;;;85.30;79.83;;;;;;;12.20;100.00;101993.78;2006149;71;32858;-75
2022/03/15 19:40:17;;;;;;;84.63;79.17;;;;;;;12.12;100.00;101995.67;2009379;71;32963;-76
2022/03/15 19:45:59;;;;;;;83.97;78.43;;;;;;;12.05;100.00;102004.28;2009524;71;32828;-75
2022/03/15 19:51:47;;;;;;;82.30;76.90;;;;;;;12.04;100.00;102010.10;2002702;71;32859;-72
2022/03/15 19:57:32;;;;;;;84.80;79.20;;;;;;;11.95;100.00;102008.36;2015009;71;32881;-77
2022/03/15 20:03:16;;;;;;;83.87;78.37;;;;;;;11.92;100.00;102008.91;2009503;71;32841;-68
2022/03/15 20:09:08;;;;;;;80.57;75.17;;;;;;;11.85;100.00;102010.50;2016780;71;32823;-76
2022/03/15 20:14:52;;;;;;;80.47;74.83;;;;;;;11.81;100.00;102019.09;1998556;71;32769;-74
2022/03/15 20:20:38;;;;;;;80.97;75.37;;;;;;;11.79;100.00;102028.28;2013076;71;32941;-70
2022/03/15 20:26:23;;;;;;;79.00;73.63;;;;;;;11.78;100.00;102029.38;2003846;71;32883;-70
2022/03/15 20:32:10;;;;;;;81.50;75.80;;;;;;;11.73;100.00;102033.50;2002562;71;32779;-75
2022/03/15 20:37:56;;;;;;;80.73;75.03;;;;;;;11.69;100.00;102038.44;2013862;71;33227;-75
2022/03/15 20:56:08;;;;;;;81.40;75.40;;;;;;;11.56;100.00;102039.70;2000495;71;32773;-76
2022/03/15 21:01:47;;;;;;;81.30;75.67;;;;;;;11.47;100.00;102048.81;2019374;71;32825;-75
2022/03/15 21:07:31;;;;;;;82.00;76.40;;;;;;;11.41;100.00;102041.80;1997062;71;32928;-74
2022/03/15 21:13:19;;;;;;;80.27;74.77;;;;;;;11.43;100.00;102040.97;2014831;71;32897;-76
2022/03/15 21:19:03;;;;;;;78.77;73.37;;;;;;;11.38;100.00;102039.52;2014906;71;30896;-75
2022/03/15 21:24:48;;;;;;;82.10;76.10;;;;;;;11.29;100.00;102041.66;2013280;70;33435;-74
2022/03/15 21:30:33;;;;;;;79.00;73.40;;;;;;;11.15;100.00;102038.44;2011589;71;32869;-76
2022/03/15 21:36:17;;;;;;;81.37;75.63;;;;;;;10.92;100.00;102042.31;1991699;71;32874;-72
2022/03/15 21:42:03;;;;;;;79.97;74.20;;;;;;;10.90;100.00;102033.95;1941289;74;33156;-71
2022/03/15 21:47:47;;;;;;;81.83;76.00;;;;;;;10.77;100.00;102028.23;2013522;71;32764;-70
2022/03/15 21:53:32;;;;;;;80.77;75.17;;;;;;;11.09;100.00;102035.29;2016831;71;32897;-73
2022/03/15 21:59:18;;;;;;;78.20;72.57;;;;;;;11.17;100.00;102036.22;2000092;71;32846;-77
2022/03/15 22:05:01;;;;;;;82.63;76.93;;;;;;;11.23;100.00;102037.13;1980003;71;32957;-71
2022/03/15 22:10:46;;;;;;;78.97;73.13;;;;;;;11.11;100.00;102037.82;2006337;71;32837;-72
2022/03/15 22:16:30;;;;;;;80.77;75.17;;;;;;;11.15;100.00;102039.83;2000632;71;32861;-72
2022/03/15 22:22:15;;;;;;;84.03;78.13;;;;;;;10.98;100.00;102051.56;2008188;70;33240;-71
2022/03/15 22:28:00;;;;;;;85.70;79.60;;;;;;;10.87;100.00;102050.58;2000988;71;33260;-74
2022/03/15 23:28:03;;;;;;;90.80;84.23;;;;;;;9.99;100.00;102036.20;2013250;70;33018;-75
2022/03/15 23:33:44;;;;;;;96.37;89.67;;;;;;;10.25;100.00;102031.08;2011728;71;32800;-74
2022/03/15 23:39:28;;;;;;;96.23;89.63;;;;;;;10.02;100.00;102030.67;2012042;71;33301;-75
2022/03/15 23:45:14;;;;;;;95.77;88.90;;;;;;;10.05;100.00;102027.41;1998536;71;32842;-76
2022/03/15 23:50:58;;;;;;;96.73;90.07;;;;;;;9.86;100.00;102029.59;2013740;71;32889;-75
2022/03/15 23:56:42;;;;;;;94.33;87.53;;;;;;;9.84;100.00;102021.23;1995279;71;32968;-72
